sensor_id;sensor_type;location;lat;lon;timestamp;P1;durP1;ratioP1;P2;durP2;ratioP2
16784;SDS011;8509;52.178;5.404;2024-01-07T00:01:26;8.48;;;5.03;;
16784;SDS011;8509;52.178;5.404;2024-01-07T00:03:52;5.88;;;3.25;;
16784;SDS011;8509;52.178;5.404;2024-01-07T00:06:18;6.25;;;3.90;;
16784;SDS011;8509;52.178;5.404;2024-01-07T00:08:44;5.70;;;4.25;;
16784;SDS011;8509;52.178;5.404;2024-01-07T00:11:09;9.57;;;3.95;;
16784;SDS011;8509;52.178;5.404;2024-01-07T00:13:35;9.02;;;4.57;;
16784;SDS011;8509;52.178;5.404;2024-01-07T00:16:01;10.30;;;4.90;;
16784;SDS011;8509;52.178;5.404;2024-01-07T00:18:26;6.07;;;4.55;;
16784;SDS011;8509;52.178;5.404;2024-01-07T00:20:52;5.93;;;3.55;;
16784;SDS011;8509;52.178;5.404;2024-01-07T00:23:18;5.90;;;3.65;;
16784;SDS011;8509;52.178;5.404;2024-01-07T00:25:46;8.32;;;3.80;;
16784;SDS011;8509;52.178;5.404;2024-01-07T00:28:12;5.63;;;4.75;;
16784;SDS011;8509;52.178;5.404;2024-01-07T00:30:38;6.80;;;4.38;;
16784;SDS011;8509;52.178;5.404;2024-01-07T00:33:03;10.90;;;5.15;;
16784;SDS011;8509;52.178;5.404;2024-01-07T00:35:29;8.20;;;4.78;;
16784;SDS011;8509;52.178;5.404;2024-01-07T00:37:55;6.97;;;4.07;;
16784;SDS011;8509;52.178;5.404;2024-01-07T00:40:22;4.70;;;2.47;;
16784;SDS011;8509;52.178;5.404;2024-01-07T00:42:48;8.38;;;3.10;;
16784;SDS011;8509;52.178;5.404;2024-01-07T00:45:14;4.30;;;2.35;;
16784;SDS011;8509;52.178;5.404;2024-01-07T00:47:41;5.15;;;3.75;;
16784;SDS011;8509;52.178;5.404;2024-01-07T00:50:06;6.32;;;3.85;;
16784;SDS011;8509;52.178;5.404;2024-01-07T00:52:32;10.75;;;5.38;;
16784;SDS011;8509;52.178;5.404;2024-01-07T00:54:58;8.82;;;3.22;;
16784;SDS011;8509;52.178;5.404;2024-01-07T00:57:23;10.07;;;4.90;;
16784;SDS011;8509;52.178;5.404;2024-01-07T00:59:49;4.22;;;3.05;;
16784;SDS011;8509;52.178;5.404;2024-01-07T01:02:15;7.85;;;4.55;;
16784;SDS011;8509;52.178;5.404;2024-01-07T01:04:41;7.18;;;3.80;;
16784;SDS011;8509;52.178;5.404;2024-01-07T01:07:07;5.18;;;2.92;;
16784;SDS011;8509;52.178;5.404;2024-01-07T01:09:35;6.80;;;3.28;;
16784;SDS011;8509;52.178;5.404;2024-01-07T01:12:01;9.52;;;4.70;;
16784;SDS011;8509;52.178;5.404;2024-01-07T01:14:26;5.32;;;2.83;;
16784;SDS011;8509;52.178;5.404;2024-01-07T01:16:52;11.60;;;3.75;;
16784;SDS011;8509;52.178;5.404;2024-01-07T01:19:18;6.35;;;3.70;;
16784;SDS011;8509;52.178;5.404;2024-01-07T01:21:44;8.90;;;4.25;;
16784;SDS011;8509;52.178;5.404;2024-01-07T01:24:09;5.95;;;3.58;;
16784;SDS011;8509;52.178;5.404;2024-01-07T01:26:35;8.68;;;4.70;;
16784;SDS011;8509;52.178;5.404;2024-01-07T01:29:01;10.77;;;5.10;;
16784;SDS011;8509;52.178;5.404;2024-01-07T01:31:26;9.25;;;4.55;;
16784;SDS011;8509;52.178;5.404;2024-01-07T01:33:52;6.00;;;4.07;;
16784;SDS011;8509;52.178;5.404;2024-01-07T01:36:18;12.85;;;5.50;;
16784;SDS011;8509;52.178;5.404;2024-01-07T01:38:43;10.57;;;5.50;;
16784;SDS011;8509;52.178;5.404;2024-01-07T01:41:09;4.25;;;3.13;;
16784;SDS011;8509;52.178;5.404;2024-01-07T01:43:34;9.23;;;5.93;;
16784;SDS011;8509;52.178;5.404;2024-01-07T01:46:01;9.13;;;6.07;;
16784;SDS011;8509;52.178;5.404;2024-01-07T01:48:27;9.82;;;5.38;;
16784;SDS011;8509;52.178;5.404;2024-01-07T01:50:53;15.50;;;6.30;;
16784;SDS011;8509;52.178;5.404;2024-01-07T01:53:22;7.40;;;4.65;;
16784;SDS011;8509;52.178;5.404;2024-01-07T01:55:49;12.68;;;6.32;;
16784;SDS011;8509;52.178;5.404;2024-01-07T01:58:15;9.70;;;5.47;;
16784;SDS011;8509;52.178;5.404;2024-01-07T02:00:43;7.60;;;4.55;;
16784;SDS011;8509;52.178;5.404;2024-01-07T02:03:10;9.02;;;4.90;;
16784;SDS011;8509;52.178;5.404;2024-01-07T02:05:35;5.45;;;4.72;;
16784;SDS011;8509;52.178;5.404;2024-01-07T02:08:01;14.70;;;5.72;;
16784;SDS011;8509;52.178;5.404;2024-01-07T02:10:27;9.88;;;6.28;;
16784;SDS011;8509;52.178;5.404;2024-01-07T02:12:59;17.00;;;6.40;;
16784;SDS011;8509;52.178;5.404;2024-01-07T02:15:25;8.55;;;5.15;;
16784;SDS011;8509;52.178;5.404;2024-01-07T02:17:51;9.98;;;6.18;;
16784;SDS011;8509;52.178;5.404;2024-01-07T02:20:16;9.43;;;4.75;;
16784;SDS011;8509;52.178;5.404;2024-01-07T02:22:42;10.52;;;4.75;;
16784;SDS011;8509;52.178;5.404;2024-01-07T02:25:08;15.00;;;5.57;;
16784;SDS011;8509;52.178;5.404;2024-01-07T02:27:34;11.65;;;6.57;;
16784;SDS011;8509;52.178;5.404;2024-01-07T02:30:00;11.93;;;6.03;;
16784;SDS011;8509;52.178;5.404;2024-01-07T02:32:25;12.82;;;5.25;;
16784;SDS011;8509;52.178;5.404;2024-01-07T02:34:51;9.70;;;5.00;;
16784;SDS011;8509;52.178;5.404;2024-01-07T02:37:17;14.30;;;4.90;;
16784;SDS011;8509;52.178;5.404;2024-01-07T02:39:43;13.23;;;6.18;;
16784;SDS011;8509;52.178;5.404;2024-01-07T02:42:09;10.80;;;5.07;;
16784;SDS011;8509;52.178;5.404;2024-01-07T02:44:35;10.80;;;4.22;;
16784;SDS011;8509;52.178;5.404;2024-01-07T02:47:01;9.23;;;4.13;;
16784;SDS011;8509;52.178;5.404;2024-01-07T02:49:27;10.38;;;5.13;;
16784;SDS011;8509;52.178;5.404;2024-01-07T02:51:53;7.93;;;4.10;;
16784;SDS011;8509;52.178;5.404;2024-01-07T02:54:19;10.48;;;5.63;;
16784;SDS011;8509;52.178;5.404;2024-01-07T02:56:44;7.32;;;5.13;;
16784;SDS011;8509;52.178;5.404;2024-01-07T02:59:11;14.95;;;5.35;;
16784;SDS011;8509;52.178;5.404;2024-01-07T03:01:37;7.35;;;3.15;;
16784;SDS011;8509;52.178;5.404;2024-01-07T03:04:05;9.00;;;5.97;;
16784;SDS011;8509;52.178;5.404;2024-01-07T03:06:32;9.70;;;5.53;;
16784;SDS011;8509;52.178;5.404;2024-01-07T03:08:58;8.40;;;5.13;;
16784;SDS011;8509;52.178;5.404;2024-01-07T03:11:23;11.15;;;6.10;;
16784;SDS011;8509;52.178;5.404;2024-01-07T03:13:49;8.60;;;4.28;;
16784;SDS011;8509;52.178;5.404;2024-01-07T03:16:18;12.52;;;4.85;;
16784;SDS011;8509;52.178;5.404;2024-01-07T03:18:45;11.52;;;6.53;;
16784;SDS011;8509;52.178;5.404;2024-01-07T03:21:18;7.25;;;4.75;;
16784;SDS011;8509;52.178;5.404;2024-01-07T03:23:48;9.88;;;5.60;;
16784;SDS011;8509;52.178;5.404;2024-01-07T03:26:15;11.90;;;5.13;;
16784;SDS011;8509;52.178;5.404;2024-01-07T03:28:42;7.07;;;4.28;;
16784;SDS011;8509;52.178;5.404;2024-01-07T03:31:09;13.70;;;4.93;;
16784;SDS011;8509;52.178;5.404;2024-01-07T03:33:40;12.80;;;5.57;;
16784;SDS011;8509;52.178;5.404;2024-01-07T03:36:07;8.18;;;5.88;;
16784;SDS011;8509;52.178;5.404;2024-01-07T03:38:37;11.02;;;6.13;;
16784;SDS011;8509;52.178;5.404;2024-01-07T03:41:04;10.68;;;4.55;;
16784;SDS011;8509;52.178;5.404;2024-01-07T03:43:30;8.23;;;4.70;;
16784;SDS011;8509;52.178;5.404;2024-01-07T03:45:56;5.00;;;3.95;;
16784;SDS011;8509;52.178;5.404;2024-01-07T03:48:21;13.70;;;6.00;;
16784;SDS011;8509;52.178;5.404;2024-01-07T03:50:47;11.02;;;6.65;;
16784;SDS011;8509;52.178;5.404;2024-01-07T03:53:13;12.32;;;6.32;;
16784;SDS011;8509;52.178;5.404;2024-01-07T03:55:39;8.35;;;4.50;;
16784;SDS011;8509;52.178;5.404;2024-01-07T03:58:05;11.38;;;7.10;;
16784;SDS011;8509;52.178;5.404;2024-01-07T04:00:31;19.95;;;6.93;;
16784;SDS011;8509;52.178;5.404;2024-01-07T04:02:57;9.23;;;5.57;;
16784;SDS011;8509;52.178;5.404;2024-01-07T04:05:23;20.10;;;6.43;;
16784;SDS011;8509;52.178;5.404;2024-01-07T04:07:48;10.38;;;5.97;;
16784;SDS011;8509;52.178;5.404;2024-01-07T04:10:17;12.70;;;7.32;;
16784;SDS011;8509;52.178;5.404;2024-01-07T04:12:44;13.27;;;5.45;;
16784;SDS011;8509;52.178;5.404;2024-01-07T04:15:10;12.75;;;6.35;;
16784;SDS011;8509;52.178;5.404;2024-01-07T04:17:37;11.07;;;6.78;;
16784;SDS011;8509;52.178;5.404;2024-01-07T04:20:03;11.63;;;4.35;;
16784;SDS011;8509;52.178;5.404;2024-01-07T04:22:29;10.00;;;6.22;;
16784;SDS011;8509;52.178;5.404;2024-01-07T04:24:55;11.43;;;7.55;;
16784;SDS011;8509;52.178;5.404;2024-01-07T04:27:20;14.50;;;7.75;;
16784;SDS011;8509;52.178;5.404;2024-01-07T04:29:46;9.38;;;5.43;;
16784;SDS011;8509;52.178;5.404;2024-01-07T04:32:12;10.32;;;4.70;;
16784;SDS011;8509;52.178;5.404;2024-01-07T04:34:37;11.48;;;5.72;;
16784;SDS011;8509;52.178;5.404;2024-01-07T04:37:03;10.82;;;6.65;;
16784;SDS011;8509;52.178;5.404;2024-01-07T04:39:29;7.70;;;5.25;;
16784;SDS011;8509;52.178;5.404;2024-01-07T04:41:54;9.30;;;4.50;;
16784;SDS011;8509;52.178;5.404;2024-01-07T04:44:20;12.27;;;6.82;;
16784;SDS011;8509;52.178;5.404;2024-01-07T04:46:47;10.00;;;4.50;;
16784;SDS011;8509;52.178;5.404;2024-01-07T04:49:14;8.07;;;4.88;;
16784;SDS011;8509;52.178;5.404;2024-01-07T04:51:39;9.27;;;6.63;;
16784;SDS011;8509;52.178;5.404;2024-01-07T04:54:05;10.38;;;5.35;;
16784;SDS011;8509;52.178;5.404;2024-01-07T04:56:31;11.45;;;6.03;;
16784;SDS011;8509;52.178;5.404;2024-01-07T04:58:57;6.30;;;4.43;;
16784;SDS011;8509;52.178;5.404;2024-01-07T05:01:23;6.93;;;3.90;;
16784;SDS011;8509;52.178;5.404;2024-01-07T05:03:48;11.25;;;5.25;;
16784;SDS011;8509;52.178;5.404;2024-01-07T05:06:14;6.60;;;4.28;;
16784;SDS011;8509;52.178;5.404;2024-01-07T05:08:40;5.63;;;3.90;;
16784;SDS011;8509;52.178;5.404;2024-01-07T05:11:06;5.25;;;3.38;;
16784;SDS011;8509;52.178;5.404;2024-01-07T05:13:33;8.95;;;4.90;;
16784;SDS011;8509;52.178;5.404;2024-01-07T05:16:00;7.15;;;4.70;;
16784;SDS011;8509;52.178;5.404;2024-01-07T05:18:26;8.23;;;4.50;;
16784;SDS011;8509;52.178;5.404;2024-01-07T05:20:52;7.55;;;3.88;;
16784;SDS011;8509;52.178;5.404;2024-01-07T05:23:17;15.18;;;4.43;;
16784;SDS011;8509;52.178;5.404;2024-01-07T05:25:43;5.13;;;3.80;;
16784;SDS011;8509;52.178;5.404;2024-01-07T05:28:10;8.73;;;4.53;;
16784;SDS011;8509;52.178;5.404;2024-01-07T05:30:36;8.68;;;3.92;;
16784;SDS011;8509;52.178;5.404;2024-01-07T05:33:03;4.68;;;3.50;;
16784;SDS011;8509;52.178;5.404;2024-01-07T05:35:29;8.40;;;4.88;;
16784;SDS011;8509;52.178;5.404;2024-01-07T05:37:55;12.88;;;4.75;;
16784;SDS011;8509;52.178;5.404;2024-01-07T05:40:21;10.75;;;4.28;;
16784;SDS011;8509;52.178;5.404;2024-01-07T05:42:47;6.72;;;4.80;;
16784;SDS011;8509;52.178;5.404;2024-01-07T05:45:12;7.22;;;4.72;;
16784;SDS011;8509;52.178;5.404;2024-01-07T05:47:38;7.40;;;4.40;;
16784;SDS011;8509;52.178;5.404;2024-01-07T05:50:05;7.45;;;3.45;;
16784;SDS011;8509;52.178;5.404;2024-01-07T05:52:32;7.53;;;4.50;;
16784;SDS011;8509;52.178;5.404;2024-01-07T05:54:57;7.40;;;5.40;;
16784;SDS011;8509;52.178;5.404;2024-01-07T05:57:23;10.40;;;5.43;;
16784;SDS011;8509;52.178;5.404;2024-01-07T05:59:49;8.05;;;4.80;;
16784;SDS011;8509;52.178;5.404;2024-01-07T06:02:15;6.90;;;4.57;;
16784;SDS011;8509;52.178;5.404;2024-01-07T06:04:42;6.78;;;4.93;;
16784;SDS011;8509;52.178;5.404;2024-01-07T06:07:08;9.73;;;5.40;;
16784;SDS011;8509;52.178;5.404;2024-01-07T06:09:33;7.38;;;4.18;;
16784;SDS011;8509;52.178;5.404;2024-01-07T06:11:59;9.15;;;3.58;;
16784;SDS011;8509;52.178;5.404;2024-01-07T06:14:25;7.85;;;4.93;;
16784;SDS011;8509;52.178;5.404;2024-01-07T06:16:51;8.68;;;4.50;;
16784;SDS011;8509;52.178;5.404;2024-01-07T06:19:17;5.55;;;3.88;;
16784;SDS011;8509;52.178;5.404;2024-01-07T06:21:43;6.10;;;3.90;;
16784;SDS011;8509;52.178;5.404;2024-01-07T06:24:09;9.18;;;4.68;;
16784;SDS011;8509;52.178;5.404;2024-01-07T06:26:35;7.78;;;4.28;;
16784;SDS011;8509;52.178;5.404;2024-01-07T06:29:01;3.40;;;3.10;;
16784;SDS011;8509;52.178;5.404;2024-01-07T06:31:26;5.80;;;4.25;;
16784;SDS011;8509;52.178;5.404;2024-01-07T06:33:52;8.85;;;5.45;;
16784;SDS011;8509;52.178;5.404;2024-01-07T06:36:20;9.52;;;3.33;;
16784;SDS011;8509;52.178;5.404;2024-01-07T06:38:46;7.40;;;5.00;;
16784;SDS011;8509;52.178;5.404;2024-01-07T06:41:12;9.27;;;4.93;;
16784;SDS011;8509;52.178;5.404;2024-01-07T06:43:38;5.60;;;4.22;;
16784;SDS011;8509;52.178;5.404;2024-01-07T06:46:04;5.70;;;3.30;;
16784;SDS011;8509;52.178;5.404;2024-01-07T06:48:30;7.28;;;4.50;;
16784;SDS011;8509;52.178;5.404;2024-01-07T06:50:55;3.55;;;2.88;;
16784;SDS011;8509;52.178;5.404;2024-01-07T06:53:22;9.73;;;4.38;;
16784;SDS011;8509;52.178;5.404;2024-01-07T06:55:48;7.88;;;3.75;;
16784;SDS011;8509;52.178;5.404;2024-01-07T06:58:13;4.88;;;3.30;;
16784;SDS011;8509;52.178;5.404;2024-01-07T07:00:39;5.88;;;3.05;;
16784;SDS011;8509;52.178;5.404;2024-01-07T07:03:05;6.13;;;3.65;;
16784;SDS011;8509;52.178;5.404;2024-01-07T07:05:33;7.05;;;4.18;;
16784;SDS011;8509;52.178;5.404;2024-01-07T07:07:58;10.05;;;4.88;;
16784;SDS011;8509;52.178;5.404;2024-01-07T07:10:24;8.52;;;4.85;;
16784;SDS011;8509;52.178;5.404;2024-01-07T07:12:50;6.53;;;3.97;;
16784;SDS011;8509;52.178;5.404;2024-01-07T07:15:16;6.57;;;3.67;;
16784;SDS011;8509;52.178;5.404;2024-01-07T07:17:42;8.77;;;4.05;;
16784;SDS011;8509;52.178;5.404;2024-01-07T07:20:08;6.45;;;4.40;;
16784;SDS011;8509;52.178;5.404;2024-01-07T07:22:34;7.32;;;4.28;;
16784;SDS011;8509;52.178;5.404;2024-01-07T07:25:00;8.00;;;4.20;;
16784;SDS011;8509;52.178;5.404;2024-01-07T07:27:26;4.70;;;3.40;;
16784;SDS011;8509;52.178;5.404;2024-01-07T07:29:52;7.38;;;4.60;;
16784;SDS011;8509;52.178;5.404;2024-01-07T07:32:17;8.60;;;5.13;;
16784;SDS011;8509;52.178;5.404;2024-01-07T07:34:43;6.80;;;4.05;;
16784;SDS011;8509;52.178;5.404;2024-01-07T07:37:09;6.10;;;3.38;;
16784;SDS011;8509;52.178;5.404;2024-01-07T07:39:35;5.60;;;3.78;;
16784;SDS011;8509;52.178;5.404;2024-01-07T07:42:00;8.75;;;4.90;;
16784;SDS011;8509;52.178;5.404;2024-01-07T07:44:26;4.43;;;3.22;;
16784;SDS011;8509;52.178;5.404;2024-01-07T07:46:52;7.72;;;4.63;;
16784;SDS011;8509;52.178;5.404;2024-01-07T07:49:18;5.03;;;3.42;;
16784;SDS011;8509;52.178;5.404;2024-01-07T07:51:44;10.05;;;3.75;;
16784;SDS011;8509;52.178;5.404;2024-01-07T07:54:09;9.07;;;5.18;;
16784;SDS011;8509;52.178;5.404;2024-01-07T07:56:35;7.15;;;3.67;;
16784;SDS011;8509;52.178;5.404;2024-01-07T07:59:01;9.57;;;4.75;;
16784;SDS011;8509;52.178;5.404;2024-01-07T08:01:27;12.85;;;4.35;;
16784;SDS011;8509;52.178;5.404;2024-01-07T08:03:53;6.35;;;3.85;;
16784;SDS011;8509;52.178;5.404;2024-01-07T08:06:19;7.28;;;3.90;;
16784;SDS011;8509;52.178;5.404;2024-01-07T08:08:48;6.32;;;3.78;;
16784;SDS011;8509;52.178;5.404;2024-01-07T08:11:14;6.03;;;4.13;;
16784;SDS011;8509;52.178;5.404;2024-01-07T08:13:40;9.15;;;5.40;;
16784;SDS011;8509;52.178;5.404;2024-01-07T08:16:06;7.35;;;4.40;;
16784;SDS011;8509;52.178;5.404;2024-01-07T08:18:32;10.93;;;4.35;;
16784;SDS011;8509;52.178;5.404;2024-01-07T08:20:58;7.40;;;4.20;;
16784;SDS011;8509;52.178;5.404;2024-01-07T08:23:24;8.82;;;4.75;;
16784;SDS011;8509;52.178;5.404;2024-01-07T08:25:50;6.25;;;2.97;;
16784;SDS011;8509;52.178;5.404;2024-01-07T08:28:18;9.65;;;5.60;;
16784;SDS011;8509;52.178;5.404;2024-01-07T08:30:45;5.63;;;3.85;;
16784;SDS011;8509;52.178;5.404;2024-01-07T08:33:11;7.65;;;3.67;;
16784;SDS011;8509;52.178;5.404;2024-01-07T08:35:37;6.85;;;3.40;;
16784;SDS011;8509;52.178;5.404;2024-01-07T08:38:03;10.57;;;3.72;;
16784;SDS011;8509;52.178;5.404;2024-01-07T08:40:30;4.47;;;3.28;;
16784;SDS011;8509;52.178;5.404;2024-01-07T08:42:56;3.72;;;2.83;;
16784;SDS011;8509;52.178;5.404;2024-01-07T08:45:22;3.65;;;2.05;;
16784;SDS011;8509;52.178;5.404;2024-01-07T08:47:47;5.47;;;4.10;;
16784;SDS011;8509;52.178;5.404;2024-01-07T08:50:13;5.53;;;3.58;;
16784;SDS011;8509;52.178;5.404;2024-01-07T08:52:39;8.55;;;3.92;;
16784;SDS011;8509;52.178;5.404;2024-01-07T08:55:04;8.43;;;4.82;;
16784;SDS011;8509;52.178;5.404;2024-01-07T08:57:34;3.17;;;2.80;;
16784;SDS011;8509;52.178;5.404;2024-01-07T08:59:59;10.30;;;4.85;;
16784;SDS011;8509;52.178;5.404;2024-01-07T09:02:25;4.82;;;3.63;;
16784;SDS011;8509;52.178;5.404;2024-01-07T09:04:51;6.32;;;3.10;;
16784;SDS011;8509;52.178;5.404;2024-01-07T09:07:17;5.60;;;3.13;;
16784;SDS011;8509;52.178;5.404;2024-01-07T09:09:44;9.88;;;4.30;;
16784;SDS011;8509;52.178;5.404;2024-01-07T09:12:09;3.78;;;2.90;;
16784;SDS011;8509;52.178;5.404;2024-01-07T09:14:36;3.25;;;2.72;;
16784;SDS011;8509;52.178;5.404;2024-01-07T09:17:03;7.25;;;2.83;;
16784;SDS011;8509;52.178;5.404;2024-01-07T09:19:29;7.97;;;4.75;;
16784;SDS011;8509;52.178;5.404;2024-01-07T09:21:54;5.85;;;3.83;;
16784;SDS011;8509;52.178;5.404;2024-01-07T09:24:20;5.00;;;3.40;;
16784;SDS011;8509;52.178;5.404;2024-01-07T09:26:46;5.63;;;4.05;;
16784;SDS011;8509;52.178;5.404;2024-01-07T09:29:11;4.93;;;2.70;;
16784;SDS011;8509;52.178;5.404;2024-01-07T09:31:38;4.22;;;2.65;;
16784;SDS011;8509;52.178;5.404;2024-01-07T09:34:04;5.70;;;3.03;;
16784;SDS011;8509;52.178;5.404;2024-01-07T09:36:33;4.25;;;3.13;;
16784;SDS011;8509;52.178;5.404;2024-01-07T09:39:00;5.28;;;3.28;;
16784;SDS011;8509;52.178;5.404;2024-01-07T09:41:26;11.65;;;2.65;;
16784;SDS011;8509;52.178;5.404;2024-01-07T09:43:52;3.63;;;2.40;;
16784;SDS011;8509;52.178;5.404;2024-01-07T09:46:18;6.13;;;3.67;;
16784;SDS011;8509;52.178;5.404;2024-01-07T09:48:44;4.30;;;2.88;;
16784;SDS011;8509;52.178;5.404;2024-01-07T09:51:10;7.03;;;3.63;;
16784;SDS011;8509;52.178;5.404;2024-01-07T09:53:38;7.15;;;2.25;;
16784;SDS011;8509;52.178;5.404;2024-01-07T09:58:49;3.65;;;2.40;;
16784;SDS011;8509;52.178;5.404;2024-01-07T10:01:15;2.72;;;2.22;;
16784;SDS011;8509;52.178;5.404;2024-01-07T10:03:44;3.95;;;1.90;;
16784;SDS011;8509;52.178;5.404;2024-01-07T10:06:10;3.72;;;2.85;;
16784;SDS011;8509;52.178;5.404;2024-01-07T10:08:37;5.63;;;2.40;;
16784;SDS011;8509;52.178;5.404;2024-01-07T10:11:03;2.83;;;1.65;;
16784;SDS011;8509;52.178;5.404;2024-01-07T10:13:30;2.20;;;1.50;;
16784;SDS011;8509;52.178;5.404;2024-01-07T10:15:56;3.15;;;2.13;;
16784;SDS011;8509;52.178;5.404;2024-01-07T10:18:22;2.97;;;2.05;;
16784;SDS011;8509;52.178;5.404;2024-01-07T10:20:48;2.63;;;1.67;;
16784;SDS011;8509;52.178;5.404;2024-01-07T10:23:18;4.85;;;2.30;;
16784;SDS011;8509;52.178;5.404;2024-01-07T10:25:44;5.33;;;1.53;;
16784;SDS011;8509;52.178;5.404;2024-01-07T10:28:10;2.63;;;1.52;;
16784;SDS011;8509;52.178;5.404;2024-01-07T10:30:39;2.75;;;1.73;;
16784;SDS011;8509;52.178;5.404;2024-01-07T10:33:13;9.32;;;1.58;;
16784;SDS011;8509;52.178;5.404;2024-01-07T10:36:02;4.32;;;1.98;;
16784;SDS011;8509;52.178;5.404;2024-01-07T10:38:31;2.20;;;2.00;;
16784;SDS011;8509;52.178;5.404;2024-01-07T10:40:59;1.90;;;1.52;;
16784;SDS011;8509;52.178;5.404;2024-01-07T10:43:32;3.05;;;1.63;;
16784;SDS011;8509;52.178;5.404;2024-01-07T10:46:01;2.83;;;1.75;;
16784;SDS011;8509;52.178;5.404;2024-01-07T10:48:30;2.10;;;1.40;;
16784;SDS011;8509;52.178;5.404;2024-01-07T10:50:59;1.80;;;1.48;;
16784;SDS011;8509;52.178;5.404;2024-01-07T10:53:25;2.15;;;1.45;;
16784;SDS011;8509;52.178;5.404;2024-01-07T10:55:59;3.15;;;1.58;;
16784;SDS011;8509;52.178;5.404;2024-01-07T10:58:28;5.45;;;1.70;;
16784;SDS011;8509;52.178;5.404;2024-01-07T11:00:58;1.98;;;1.88;;
16784;SDS011;8509;52.178;5.404;2024-01-07T11:03:31;1.45;;;1.02;;
16784;SDS011;8509;52.178;5.404;2024-01-07T11:06:06;8.70;;;1.70;;
16784;SDS011;8509;52.178;5.404;2024-01-07T11:11:27;2.08;;;1.70;;
16784;SDS011;8509;52.178;5.404;2024-01-07T11:14:00;1.65;;;1.20;;
16784;SDS011;8509;52.178;5.404;2024-01-07T11:16:42;2.72;;;1.63;;
16784;SDS011;8509;52.178;5.404;2024-01-07T11:19:09;5.47;;;1.63;;
16784;SDS011;8509;52.178;5.404;2024-01-07T11:21:37;1.35;;;1.08;;
16784;SDS011;8509;52.178;5.404;2024-01-07T11:24:03;1.75;;;1.48;;
16784;SDS011;8509;52.178;5.404;2024-01-07T11:26:29;1.33;;;1.00;;
16784;SDS011;8509;52.178;5.404;2024-01-07T11:28:56;1.52;;;0.93;;
16784;SDS011;8509;52.178;5.404;2024-01-07T11:37:12;1.25;;;1.10;;
16784;SDS011;8509;52.178;5.404;2024-01-07T11:39:39;1.58;;;1.30;;
16784;SDS011;8509;52.178;5.404;2024-01-07T11:42:10;1.20;;;1.10;;
16784;SDS011;8509;52.178;5.404;2024-01-07T11:44:49;1.92;;;1.27;;
16784;SDS011;8509;52.178;5.404;2024-01-07T11:47:15;0.77;;;0.77;;
16784;SDS011;8509;52.178;5.404;2024-01-07T11:49:41;1.27;;;1.00;;
16784;SDS011;8509;52.178;5.404;2024-01-07T11:52:08;1.08;;;0.95;;
16784;SDS011;8509;52.178;5.404;2024-01-07T11:54:35;2.05;;;0.98;;
16784;SDS011;8509;52.178;5.404;2024-01-07T11:57:02;2.35;;;1.73;;
16784;SDS011;8509;52.178;5.404;2024-01-07T11:59:28;1.40;;;0.60;;
16784;SDS011;8509;52.178;5.404;2024-01-07T12:01:54;0.65;;;0.65;;
16784;SDS011;8509;52.178;5.404;2024-01-07T12:04:20;1.52;;;1.10;;
16784;SDS011;8509;52.178;5.404;2024-01-07T12:06:47;1.48;;;1.10;;
16784;SDS011;8509;52.178;5.404;2024-01-07T12:09:16;1.70;;;1.00;;
16784;SDS011;8509;52.178;5.404;2024-01-07T12:11:41;1.77;;;0.98;;
16784;SDS011;8509;52.178;5.404;2024-01-07T12:14:08;0.75;;;0.75;;
16784;SDS011;8509;52.178;5.404;2024-01-07T12:16:37;1.40;;;1.10;;
16784;SDS011;8509;52.178;5.404;2024-01-07T12:19:03;2.08;;;1.00;;
16784;SDS011;8509;52.178;5.404;2024-01-07T12:21:29;1.60;;;1.20;;
16784;SDS011;8509;52.178;5.404;2024-01-07T12:23:55;0.88;;;0.77;;
16784;SDS011;8509;52.178;5.404;2024-01-07T12:26:25;0.50;;;0.50;;
16784;SDS011;8509;52.178;5.404;2024-01-07T12:28:52;1.15;;;1.05;;
16784;SDS011;8509;52.178;5.404;2024-01-07T12:31:25;3.90;;;0.57;;
16784;SDS011;8509;52.178;5.404;2024-01-07T12:33:51;0.82;;;0.80;;
16784;SDS011;8509;52.178;5.404;2024-01-07T12:36:24;0.90;;;0.88;;
16784;SDS011;8509;52.178;5.404;2024-01-07T12:38:50;0.65;;;0.47;;
16784;SDS011;8509;52.178;5.404;2024-01-07T12:41:19;3.28;;;1.20;;
16784;SDS011;8509;52.178;5.404;2024-01-07T12:43:45;0.50;;;0.50;;
16784;SDS011;8509;52.178;5.404;2024-01-07T12:46:11;0.95;;;0.90;;
16784;SDS011;8509;52.178;5.404;2024-01-07T12:48:36;1.15;;;0.95;;
16784;SDS011;8509;52.178;5.404;2024-01-07T12:51:02;0.38;;;0.38;;
16784;SDS011;8509;52.178;5.404;2024-01-07T12:53:28;0.70;;;0.70;;
16784;SDS011;8509;52.178;5.404;2024-01-07T12:55:54;1.27;;;1.17;;
16784;SDS011;8509;52.178;5.404;2024-01-07T12:58:19;1.05;;;0.73;;
16784;SDS011;8509;52.178;5.404;2024-01-07T13:00:46;1.02;;;0.90;;
16784;SDS011;8509;52.178;5.404;2024-01-07T13:03:12;1.13;;;1.02;;
16784;SDS011;8509;52.178;5.404;2024-01-07T13:05:42;0.82;;;0.82;;
16784;SDS011;8509;52.178;5.404;2024-01-07T13:08:08;1.13;;;0.90;;
16784;SDS011;8509;52.178;5.404;2024-01-07T13:10:34;1.00;;;0.85;;
16784;SDS011;8509;52.178;5.404;2024-01-07T13:13:00;3.30;;;0.93;;
16784;SDS011;8509;52.178;5.404;2024-01-07T13:15:26;1.02;;;0.93;;
16784;SDS011;8509;52.178;5.404;2024-01-07T13:17:51;1.33;;;0.93;;
16784;SDS011;8509;52.178;5.404;2024-01-07T13:20:17;2.20;;;1.15;;
16784;SDS011;8509;52.178;5.404;2024-01-07T13:22:45;0.57;;;0.57;;
16784;SDS011;8509;52.178;5.404;2024-01-07T13:25:11;0.60;;;0.60;;
16784;SDS011;8509;52.178;5.404;2024-01-07T13:27:37;0.65;;;0.65;;
16784;SDS011;8509;52.178;5.404;2024-01-07T13:30:03;0.40;;;0.40;;
16784;SDS011;8509;52.178;5.404;2024-01-07T13:32:30;0.95;;;0.88;;
16784;SDS011;8509;52.178;5.404;2024-01-07T13:34:55;1.38;;;0.80;;
16784;SDS011;8509;52.178;5.404;2024-01-07T13:37:21;1.35;;;1.25;;
16784;SDS011;8509;52.178;5.404;2024-01-07T13:39:47;0.60;;;0.60;;
16784;SDS011;8509;52.178;5.404;2024-01-07T13:42:14;1.15;;;0.60;;
16784;SDS011;8509;52.178;5.404;2024-01-07T13:44:40;0.60;;;0.60;;
16784;SDS011;8509;52.178;5.404;2024-01-07T13:47:11;0.90;;;0.80;;
16784;SDS011;8509;52.178;5.404;2024-01-07T13:49:41;1.13;;;1.02;;
16784;SDS011;8509;52.178;5.404;2024-01-07T13:52:07;0.43;;;0.43;;
16784;SDS011;8509;52.178;5.404;2024-01-07T13:54:32;2.38;;;0.98;;
16784;SDS011;8509;52.178;5.404;2024-01-07T13:56:58;1.23;;;1.10;;
16784;SDS011;8509;52.178;5.404;2024-01-07T13:59:24;1.02;;;0.82;;
16784;SDS011;8509;52.178;5.404;2024-01-07T14:01:51;1.50;;;0.90;;
16784;SDS011;8509;52.178;5.404;2024-01-07T14:04:17;1.20;;;0.70;;
16784;SDS011;8509;52.178;5.404;2024-01-07T14:06:42;0.90;;;0.75;;
16784;SDS011;8509;52.178;5.404;2024-01-07T14:09:09;0.50;;;0.50;;
16784;SDS011;8509;52.178;5.404;2024-01-07T14:11:34;5.95;;;1.00;;
16784;SDS011;8509;52.178;5.404;2024-01-07T14:14:00;0.85;;;0.60;;
16784;SDS011;8509;52.178;5.404;2024-01-07T14:16:26;2.17;;;0.50;;
16784;SDS011;8509;52.178;5.404;2024-01-07T14:18:52;1.10;;;0.70;;
16784;SDS011;8509;52.178;5.404;2024-01-07T14:21:18;1.25;;;1.00;;
16784;SDS011;8509;52.178;5.404;2024-01-07T14:23:44;2.25;;;1.00;;
16784;SDS011;8509;52.178;5.404;2024-01-07T14:26:09;5.93;;;0.70;;
16784;SDS011;8509;52.178;5.404;2024-01-07T14:28:35;0.85;;;0.63;;
16784;SDS011;8509;52.178;5.404;2024-01-07T14:31:01;1.00;;;0.90;;
16784;SDS011;8509;52.178;5.404;2024-01-07T14:33:28;0.57;;;0.57;;
16784;SDS011;8509;52.178;5.404;2024-01-07T14:35:54;4.43;;;1.00;;
16784;SDS011;8509;52.178;5.404;2024-01-07T14:38:19;0.52;;;0.52;;
16784;SDS011;8509;52.178;5.404;2024-01-07T14:40:45;1.65;;;0.80;;
16784;SDS011;8509;52.178;5.404;2024-01-07T14:43:11;0.60;;;0.60;;
16784;SDS011;8509;52.178;5.404;2024-01-07T14:45:38;0.70;;;0.70;;
16784;SDS011;8509;52.178;5.404;2024-01-07T14:48:03;1.17;;;1.02;;
16784;SDS011;8509;52.178;5.404;2024-01-07T14:50:29;4.47;;;0.70;;
16784;SDS011;8509;52.178;5.404;2024-01-07T14:52:55;0.95;;;0.90;;
16784;SDS011;8509;52.178;5.404;2024-01-07T14:55:21;1.25;;;1.00;;
16784;SDS011;8509;52.178;5.404;2024-01-07T14:57:46;5.18;;;1.05;;
16784;SDS011;8509;52.178;5.404;2024-01-07T15:00:12;1.67;;;0.70;;
16784;SDS011;8509;52.178;5.404;2024-01-07T15:02:38;0.45;;;0.45;;
16784;SDS011;8509;52.178;5.404;2024-01-07T15:05:04;0.68;;;0.68;;